createdAt,value
2022-08-08T00:00:54.155Z,0.00
2022-08-08T00:01:08.668Z,0.00
2022-08-08T00:02:29.988Z,0.00
2022-08-08T00:03:13.243Z,0.00
2022-08-08T00:04:02.273Z,0.00
2022-08-08T00:05:01.201Z,0.00
2022-08-08T00:06:04.022Z,0.00
2022-08-08T00:07:01.147Z,0.00
2022-08-08T00:08:02.152Z,0.00
2022-08-08T00:09:01.133Z,0.00
2022-08-08T00:10:01.138Z,0.00
2022-08-08T00:11:01.102Z,0.00
2022-08-08T00:12:07.231Z,0.00
2022-08-08T00:13:02.069Z,0.00
2022-08-08T00:14:14.896Z,0.00
2022-08-08T00:15:04.986Z,0.00
2022-08-08T00:16:01.044Z,0.00
2022-08-08T00:17:01.024Z,0.00
2022-08-08T00:18:04.152Z,0.00
2022-08-08T00:19:00.995Z,0.00
2022-08-08T00:20:00.971Z,0.00
2022-08-08T00:21:01.073Z,0.00
2022-08-08T00:22:00.966Z,0.00
2022-08-08T00:23:00.946Z,0.00
2022-08-08T00:24:00.923Z,0.00
2022-08-08T00:25:00.910Z,0.00
2022-08-08T00:26:00.916Z,0.00
2022-08-08T00:27:00.984Z,0.00
2022-08-08T00:28:00.885Z,0.00
2022-08-08T00:29:00.866Z,0.00
2022-08-08T00:30:00.843Z,0.00
2022-08-08T00:32:20.614Z,0.00
2022-08-08T00:32:20.751Z,0.00
2022-08-08T00:33:01.795Z,0.00
2022-08-08T00:34:18.554Z,0.00
2022-08-08T00:35:04.107Z,0.00
2022-08-08T00:36:00.776Z,0.00
2022-08-08T00:37:03.786Z,0.00
2022-08-08T00:38:02.946Z,0.00
2022-08-08T00:39:00.777Z,0.00
2022-08-08T00:41:09.860Z,0.00
2022-08-08T00:41:12.951Z,0.00
2022-08-08T00:42:08.842Z,0.00
2022-08-08T00:43:09.558Z,0.00
2022-08-08T00:44:01.713Z,0.00
2022-08-08T00:45:00.631Z,0.00
2022-08-08T00:46:00.633Z,0.00
2022-08-08T00:47:00.600Z,0.00
2022-08-08T00:48:05.083Z,0.00
2022-08-08T00:49:01.703Z,0.00
2022-08-08T00:50:00.568Z,0.00
2022-08-08T00:51:00.563Z,0.00
2022-08-08T00:52:00.540Z,0.00
2022-08-08T00:53:00.616Z,0.00
2022-08-08T00:54:13.459Z,0.00
2022-08-08T00:55:01.612Z,0.00
2022-08-08T00:56:00.496Z,0.00
2022-08-08T00:57:00.478Z,0.00
2022-08-08T00:58:00.453Z,0.00
2022-08-08T00:59:00.446Z,0.00
2022-08-08T01:00:00.431Z,0.00
2022-08-08T01:01:00.583Z,0.00
2022-08-08T01:02:01.425Z,0.00
2022-08-08T01:03:58.790Z,0.00
2022-08-08T01:04:04.449Z,0.00
2022-08-08T01:05:00.369Z,0.00
2022-08-08T01:06:02.285Z,0.00
2022-08-08T01:07:01.495Z,0.00
2022-08-08T01:08:00.317Z,0.00
2022-08-08T01:09:00.295Z,0.00
2022-08-08T01:10:01.308Z,0.00
2022-08-08T01:11:01.291Z,0.00
2022-08-08T01:12:00.267Z,0.00
2022-08-08T01:13:00.248Z,0.00
2022-08-08T01:14:00.253Z,0.00
2022-08-08T01:15:00.605Z,0.00
2022-08-08T01:16:00.221Z,0.00
2022-08-08T01:17:00.234Z,0.00
2022-08-08T01:18:02.289Z,0.00
2022-08-08T01:19:02.682Z,0.00
2022-08-08T01:20:03.084Z,0.00
2022-08-08T01:21:00.139Z,0.00
2022-08-08T01:22:13.045Z,0.00
2022-08-08T01:23:01.219Z,0.00
2022-08-08T01:24:06.669Z,0.00
2022-08-08T01:25:01.096Z,0.00
2022-08-08T01:26:02.222Z,0.00
2022-08-08T01:27:01.051Z,0.00
2022-08-08T01:28:02.093Z,0.00
2022-08-08T01:29:00.857Z,0.00
2022-08-08T01:30:03.341Z,0.00
2022-08-08T01:31:00.019Z,0.00
2022-08-08T01:32:16.268Z,0.00
2022-08-08T01:33:00.973Z,0.00
2022-08-08T01:34:01.232Z,0.00
2022-08-08T01:34:59.952Z,0.00
2022-08-08T01:36:01.193Z,0.00
2022-08-08T01:36:59.928Z,0.00
2022-08-08T01:37:59.920Z,0.00
2022-08-08T01:38:59.985Z,0.00
2022-08-08T01:39:59.919Z,0.00
2022-08-08T01:40:59.865Z,0.00
2022-08-08T01:41:59.946Z,0.00
2022-08-08T01:42:59.850Z,0.00
2022-08-08T01:43:59.826Z,0.00
2022-08-08T01:45:00.407Z,0.00
2022-08-08T01:45:59.819Z,0.00
2022-08-08T01:46:59.786Z,0.00
2022-08-08T01:48:16.346Z,0.00
2022-08-08T01:49:00.770Z,0.00
2022-08-08T01:49:59.747Z,0.00
2022-08-08T01:50:59.852Z,0.00
2022-08-08T01:52:41.613Z,0.00
2022-08-08T01:54:05.846Z,0.00
2022-08-08T01:55:15.109Z,0.00
2022-08-08T01:55:26.006Z,0.00
2022-08-08T01:56:28.418Z,0.00
2022-08-08T01:57:00.664Z,0.00
2022-08-08T01:58:12.408Z,0.00
2022-08-08T01:59:02.969Z,0.00
2022-08-08T02:00:02.263Z,0.00
2022-08-08T02:00:59.612Z,0.00
2022-08-08T02:02:04.921Z,0.00
2022-08-08T02:03:00.563Z,0.00
2022-08-08T02:03:59.609Z,0.00
2022-08-08T02:04:59.557Z,0.00
2022-08-08T02:05:59.532Z,0.00
2022-08-08T02:06:59.540Z,0.00
2022-08-08T02:07:59.537Z,0.00
2022-08-08T02:08:59.498Z,0.00
2022-08-08T02:10:01.555Z,0.00
2022-08-08T02:10:59.465Z,0.00
2022-08-08T02:12:00.852Z,0.00
2022-08-08T02:12:59.457Z,0.00
2022-08-08T02:13:59.536Z,0.00
2022-08-08T02:14:59.656Z,0.00
2022-08-08T02:15:59.410Z,0.00
2022-08-08T02:16:59.391Z,0.00
2022-08-08T02:17:59.369Z,0.00
2022-08-08T02:18:59.438Z,0.00
2022-08-08T02:20:09.447Z,0.00
2022-08-08T02:21:08.331Z,0.00
2022-08-08T02:22:00.332Z,0.00
2022-08-08T02:22:59.298Z,0.00
2022-08-08T02:23:59.301Z,0.00
2022-08-08T02:24:59.284Z,0.00
2022-08-08T02:26:00.583Z,0.00
2022-08-08T02:27:00.967Z,0.00
2022-08-08T02:27:59.237Z,0.00
2022-08-08T02:28:59.219Z,0.00
2022-08-08T02:29:59.223Z,0.00
2022-08-08T02:31:02.108Z,0.00
2022-08-08T02:32:04.649Z,0.00
2022-08-08T02:32:59.160Z,0.00
2022-08-08T02:34:08.761Z,0.00
2022-08-08T02:35:11.171Z,0.00
2022-08-08T02:36:05.040Z,0.00
2022-08-08T02:37:00.128Z,0.00
2022-08-08T02:37:59.143Z,0.00
2022-08-08T02:39:01.347Z,0.00
2022-08-08T02:40:00.107Z,0.00
2022-08-08T02:40:59.057Z,0.00
2022-08-08T02:42:05.461Z,0.00
2022-08-08T02:44:35.807Z,0.00
2022-08-08T02:44:38.904Z,0.00
2022-08-08T02:45:00.048Z,0.00
2022-08-08T02:45:58.994Z,0.00
2022-08-08T02:46:58.974Z,0.00
2022-08-08T02:47:58.979Z,0.00
2022-08-08T02:48:58.967Z,0.00
2022-08-08T02:49:58.937Z,0.00
2022-08-08T02:50:58.937Z,0.00
2022-08-08T02:52:01.237Z,0.00
2022-08-08T02:52:59.897Z,0.00
2022-08-08T02:53:58.900Z,0.00
2022-08-08T02:54:58.867Z,0.00
2022-08-08T02:56:00.085Z,0.00
2022-08-08T02:56:58.860Z,0.00
2022-08-08T02:57:58.827Z,0.00
2022-08-08T02:58:58.855Z,0.00
2022-08-08T03:00:26.363Z,0.00
2022-08-08T03:00:59.850Z,0.00
2022-08-08T03:01:58.841Z,0.00
2022-08-08T03:02:58.758Z,0.00
2022-08-08T03:05:03.478Z,0.00
2022-08-08T03:05:04.802Z,0.00
2022-08-08T03:05:59.721Z,0.00
2022-08-08T03:06:58.721Z,0.00
2022-08-08T03:07:59.305Z,0.00
2022-08-08T03:08:58.671Z,0.00
2022-08-08T03:09:58.684Z,0.00
2022-08-08T03:10:58.671Z,0.00
2022-08-08T03:12:02.877Z,0.00
2022-08-08T03:13:02.360Z,0.00
2022-08-08T03:16:00.785Z,0.00
2022-08-08T03:16:00.905Z,0.00
2022-08-08T03:16:05.260Z,0.00
2022-08-08T03:16:59.572Z,0.00
2022-08-08T03:18:04.518Z,0.00
2022-08-08T03:18:59.557Z,0.00
2022-08-08T03:19:58.534Z,0.00
2022-08-08T03:20:59.515Z,0.00
2022-08-08T03:21:59.991Z,0.00
2022-08-08T03:23:00.635Z,0.00
2022-08-08T03:24:02.055Z,0.00
2022-08-08T03:24:58.478Z,0.00
2022-08-08T03:25:58.453Z,0.00
2022-08-08T03:26:58.477Z,0.00
2022-08-08T03:27:58.457Z,0.00
2022-08-08T03:28:58.406Z,0.00
2022-08-08T03:29:58.410Z,0.00
2022-08-08T03:30:58.377Z,0.00
2022-08-08T03:32:05.979Z,0.00
2022-08-08T03:33:07.630Z,0.00
2022-08-08T03:34:01.089Z,0.00
2022-08-08T03:34:58.357Z,0.00
2022-08-08T03:35:58.331Z,0.00
2022-08-08T03:36:58.313Z,0.00
2022-08-08T03:38:52.605Z,0.00
2022-08-08T03:39:14.696Z,0.00
2022-08-08T03:40:00.548Z,0.00
2022-08-08T03:40:58.368Z,0.00
2022-08-08T03:42:27.725Z,0.00
2022-08-08T03:43:16.832Z,0.00
2022-08-08T03:43:59.595Z,0.00
2022-08-08T03:44:58.634Z,0.00
2022-08-08T03:46:06.367Z,0.00
2022-08-08T03:46:59.175Z,0.00
2022-08-08T03:47:58.150Z,0.00
2022-08-08T03:49:56.374Z,0.00
2022-08-08T03:50:02.308Z,0.00
2022-08-08T03:50:58.125Z,0.00
2022-08-08T03:51:58.103Z,0.00
2022-08-08T03:52:58.513Z,5.62
2022-08-08T03:53:58.088Z,5.62
2022-08-08T03:55:09.544Z,5.62
2022-08-08T03:56:04.434Z,5.62
2022-08-08T03:56:59.047Z,5.62
2022-08-08T03:58:31.360Z,5.62
2022-08-08T03:58:59.283Z,5.62
2022-08-08T04:00:08.069Z,5.62
2022-08-08T04:01:20.993Z,5.62
2022-08-08T04:02:31.804Z,11.25
2022-08-08T04:02:59.681Z,11.25
2022-08-08T04:04:02.016Z,11.25
2022-08-08T04:04:57.939Z,11.25
2022-08-08T04:05:57.937Z,11.25
2022-08-08T04:07:00.891Z,11.25
2022-08-08T04:07:58.200Z,11.25
2022-08-08T04:08:57.884Z,16.88
2022-08-08T04:10:02.925Z,16.88
2022-08-08T04:10:59.776Z,16.88
2022-08-08T04:12:00.816Z,16.88
2022-08-08T04:12:57.818Z,16.88
2022-08-08T04:14:04.387Z,22.50
2022-08-08T04:14:58.788Z,22.50
2022-08-08T04:16:05.508Z,22.50
2022-08-08T04:16:58.904Z,22.50
2022-08-08T04:17:59.403Z,22.50
2022-08-08T04:18:57.751Z,28.12
2022-08-08T04:19:57.711Z,28.12
2022-08-08T04:20:57.715Z,28.12
2022-08-08T04:21:58.226Z,28.12
2022-08-08T04:22:58.303Z,28.12
2022-08-08T04:24:05.721Z,33.75
2022-08-08T04:24:58.653Z,33.75
2022-08-08T04:25:57.647Z,33.75
2022-08-08T04:26:58.673Z,33.75
2022-08-08T04:28:10.680Z,33.75
2022-08-08T04:28:58.616Z,39.38
2022-08-08T04:30:17.243Z,39.38
2022-08-08T04:30:58.588Z,39.38
2022-08-08T04:32:00.018Z,39.38
2022-08-08T04:32:57.544Z,39.38
2022-08-08T04:33:57.538Z,45.00
2022-08-08T04:34:58.709Z,45.00
2022-08-08T04:35:57.508Z,45.00
2022-08-08T04:36:57.508Z,45.00
2022-08-08T04:37:57.474Z,45.00
2022-08-08T04:39:47.927Z,50.62
2022-08-08T04:40:06.360Z,50.62
2022-08-08T04:42:11.378Z,50.62
2022-08-08T04:43:10.477Z,56.25
2022-08-08T04:44:09.418Z,56.25
2022-08-08T04:45:09.402Z,56.25
2022-08-08T04:46:09.403Z,56.25
2022-08-08T04:47:11.916Z,56.25
2022-08-08T04:48:09.362Z,56.25
2022-08-08T04:49:11.410Z,61.88
2022-08-08T04:50:09.326Z,61.88
2022-08-08T04:51:10.332Z,61.88
2022-08-08T04:52:09.317Z,61.88
2022-08-08T04:53:14.012Z,61.88
2022-08-08T04:54:38.312Z,67.50
2022-08-08T04:55:10.439Z,67.50
2022-08-08T04:56:09.261Z,67.50
2022-08-08T04:57:09.237Z,67.50
2022-08-08T04:58:11.184Z,67.50
2022-08-08T04:59:09.208Z,67.50
2022-08-08T05:00:10.146Z,73.12
2022-08-08T05:01:11.305Z,73.12
2022-08-08T05:02:09.264Z,73.12
2022-08-08T05:03:12.691Z,73.12
2022-08-08T05:04:12.853Z,73.12
2022-08-08T05:05:15.916Z,73.12
2022-08-08T05:06:12.512Z,78.75
2022-08-08T05:07:10.107Z,78.75
2022-08-08T05:08:09.090Z,78.75
2022-08-08T05:09:09.176Z,78.75
2022-08-08T05:10:12.765Z,78.75
2022-08-08T05:11:09.175Z,78.75
2022-08-08T05:12:09.271Z,78.75
2022-08-08T05:13:17.531Z,84.38
2022-08-08T05:14:12.296Z,84.38
2022-08-08T05:15:09.003Z,84.38
2022-08-08T05:16:50.925Z,84.38
2022-08-08T05:17:10.984Z,84.38
2022-08-08T05:18:08.963Z,90.00
2022-08-08T05:19:08.965Z,90.00
2022-08-08T05:20:15.005Z,90.00
2022-08-08T05:21:09.924Z,90.00
2022-08-08T05:22:09.029Z,95.62
2022-08-08T05:23:08.897Z,95.62
2022-08-08T05:24:08.875Z,95.62
2022-08-08T05:25:08.881Z,95.62
2022-08-08T05:26:08.861Z,95.62
2022-08-08T05:27:09.996Z,95.62
2022-08-08T05:28:08.827Z,101.25
2022-08-08T05:29:08.831Z,101.25
2022-08-08T05:30:08.788Z,101.25
2022-08-08T05:31:19.455Z,101.25
2022-08-08T05:32:09.783Z,101.25
2022-08-08T05:33:08.758Z,101.25
2022-08-08T05:34:08.752Z,101.25
2022-08-08T05:35:09.709Z,101.25
2022-08-08T05:36:08.709Z,101.25
2022-08-08T05:37:17.051Z,106.88
2022-08-08T05:38:31.469Z,106.88
2022-08-08T05:39:09.786Z,106.88
2022-08-08T05:40:09.391Z,106.88
2022-08-08T05:41:08.650Z,106.88
2022-08-08T05:42:08.631Z,106.88
2022-08-08T05:43:38.871Z,106.88
2022-08-08T05:44:09.615Z,112.50
2022-08-08T05:45:10.222Z,112.50
2022-08-08T05:46:09.599Z,112.50
2022-08-08T05:47:08.569Z,112.50
2022-08-08T05:48:09.917Z,112.50
2022-08-08T05:49:10.985Z,112.50
2022-08-08T05:50:08.522Z,112.50
2022-08-08T05:51:14.708Z,118.12
2022-08-08T05:52:09.594Z,118.12
2022-08-08T05:53:55.402Z,118.12
2022-08-08T05:54:27.677Z,123.75
2022-08-08T05:55:09.790Z,123.75
2022-08-08T05:56:14.662Z,123.75
2022-08-08T05:57:09.448Z,123.75
2022-08-08T05:58:17.727Z,123.75
2022-08-08T05:59:12.437Z,123.75
2022-08-08T06:00:23.580Z,129.38
2022-08-08T06:01:09.392Z,129.38
2022-08-08T06:02:08.356Z,129.38
2022-08-08T06:03:08.411Z,129.38
2022-08-08T06:04:13.583Z,129.38
2022-08-08T06:05:32.960Z,135.00
2022-08-08T06:06:09.312Z,135.00
2022-08-08T06:07:08.290Z,135.00
2022-08-08T06:08:09.908Z,129.38
2022-08-08T06:09:59.881Z,129.38
2022-08-08T06:10:10.807Z,129.38
2022-08-08T06:11:08.341Z,135.00
2022-08-08T06:12:08.234Z,135.00
2022-08-08T06:13:08.246Z,135.00
2022-08-08T06:14:12.598Z,140.62
2022-08-08T06:15:08.181Z,140.62
2022-08-08T06:16:08.192Z,140.62
2022-08-08T06:17:08.173Z,146.25
2022-08-08T06:18:20.220Z,146.25
2022-08-08T06:19:11.231Z,146.25
2022-08-08T06:20:11.660Z,151.88
2022-08-08T06:21:28.495Z,151.88
2022-08-08T06:23:09.829Z,157.50
2022-08-08T06:24:13.803Z,163.12
2022-08-08T06:25:10.366Z,163.12
2022-08-08T06:26:38.169Z,168.75
2022-08-08T06:27:09.305Z,168.75
2022-08-08T06:28:08.028Z,168.75
2022-08-08T06:29:26.803Z,174.38
2022-08-08T06:30:11.770Z,174.38
2022-08-08T06:31:09.522Z,174.38
2022-08-08T06:32:11.200Z,174.38
2022-08-08T06:33:09.289Z,168.75
2022-08-08T06:34:28.025Z,157.50
2022-08-08T06:36:04.379Z,157.50
2022-08-08T06:36:10.238Z,163.12
2022-08-08T06:37:24.496Z,163.12
2022-08-08T06:38:09.211Z,168.75
2022-08-08T06:39:08.911Z,174.38
2022-08-08T06:40:14.269Z,174.38
2022-08-08T06:41:13.152Z,174.38
2022-08-08T06:42:07.834Z,174.38
2022-08-08T06:43:09.548Z,168.75
2022-08-08T06:44:07.781Z,157.50
2022-08-08T06:45:08.579Z,163.12
2022-08-08T06:46:09.182Z,168.75
2022-08-08T06:47:07.750Z,180.00
2022-08-08T06:48:08.623Z,185.62
2022-08-08T06:49:07.741Z,185.62
2022-08-08T06:50:07.710Z,185.62
2022-08-08T06:51:08.777Z,185.62
2022-08-08T06:52:07.687Z,185.62
2022-08-08T06:53:14.213Z,185.62
2022-08-08T06:54:08.659Z,185.62
2022-08-08T06:55:07.634Z,191.25
2022-08-08T06:56:07.616Z,185.62
2022-08-08T06:57:08.708Z,185.62
2022-08-08T06:58:07.596Z,185.62
2022-08-08T06:59:09.621Z,191.25
2022-08-08T07:00:11.497Z,191.25
2022-08-08T07:01:52.322Z,191.25
2022-08-08T07:02:24.378Z,191.25
2022-08-08T07:03:08.613Z,191.25
2022-08-08T07:04:38.922Z,191.25
2022-08-08T07:05:11.910Z,191.25
2022-08-08T07:06:08.501Z,191.25
2022-08-08T07:07:11.570Z,191.25
2022-08-08T07:08:08.815Z,191.25
2022-08-08T07:09:07.494Z,191.25
2022-08-08T07:10:08.548Z,191.25
2022-08-08T07:11:07.668Z,191.25
2022-08-08T07:12:07.414Z,191.25
2022-08-08T07:13:07.391Z,191.25
2022-08-08T07:14:07.392Z,191.25
2022-08-08T07:15:15.433Z,191.25
2022-08-08T07:16:11.806Z,191.25
2022-08-08T07:17:09.257Z,191.25
2022-08-08T07:18:35.621Z,191.25
2022-08-08T07:19:08.324Z,191.25
2022-08-08T07:20:07.317Z,191.25
2022-08-08T07:21:18.710Z,191.25
2022-08-08T07:22:12.190Z,191.25
2022-08-08T07:23:08.255Z,191.25
2022-08-08T07:24:07.244Z,196.88
2022-08-08T07:25:07.242Z,196.88
2022-08-08T07:26:07.215Z,196.88
2022-08-08T07:27:11.206Z,196.88
2022-08-08T07:28:07.999Z,196.88
2022-08-08T07:29:11.368Z,196.88
2022-08-08T07:30:13.711Z,196.88
2022-08-08T07:31:08.149Z,196.88
2022-08-08T07:32:07.155Z,196.88
2022-08-08T07:33:07.132Z,196.88
2022-08-08T07:34:08.637Z,196.88
2022-08-08T07:35:08.650Z,196.88
2022-08-08T07:36:07.079Z,202.50
2022-08-08T07:37:11.733Z,202.50
2022-08-08T07:38:10.281Z,202.50
2022-08-08T07:39:08.101Z,202.50
2022-08-08T07:40:08.076Z,202.50
2022-08-08T07:41:07.011Z,202.50
2022-08-08T07:42:08.015Z,202.50
2022-08-08T07:43:08.819Z,202.50
2022-08-08T07:44:10.513Z,202.50
2022-08-08T07:45:07.967Z,202.50
2022-08-08T07:46:23.529Z,202.50
2022-08-08T07:47:07.947Z,202.50
2022-08-08T07:48:06.936Z,202.50
2022-08-08T07:49:06.905Z,208.12
2022-08-08T07:50:06.894Z,208.12
2022-08-08T07:51:08.925Z,208.12
2022-08-08T07:52:07.880Z,208.12
2022-08-08T07:53:07.847Z,208.12
2022-08-08T07:54:06.960Z,208.12
2022-08-08T07:55:06.827Z,208.12
2022-08-08T07:56:06.807Z,208.12
2022-08-08T07:57:09.063Z,208.12
2022-08-08T07:58:06.787Z,208.12
2022-08-08T07:59:06.782Z,208.12
2022-08-08T08:00:13.207Z,208.12
2022-08-08T08:01:08.284Z,208.12
2022-08-08T08:02:35.252Z,208.12
2022-08-08T08:03:12.379Z,213.75
2022-08-08T08:04:07.700Z,213.75
2022-08-08T08:05:15.143Z,213.75
2022-08-08T08:06:07.695Z,213.75
2022-08-08T08:07:06.652Z,213.75
2022-08-08T08:08:06.660Z,213.75
2022-08-08T08:09:06.715Z,213.75
2022-08-08T08:10:06.623Z,213.75
2022-08-08T08:11:06.618Z,213.75
2022-08-08T08:12:06.607Z,213.75
2022-08-08T08:13:06.574Z,213.75
2022-08-08T08:14:09.749Z,213.75
2022-08-08T08:15:06.545Z,213.75
2022-08-08T08:16:06.564Z,213.75
2022-08-08T08:17:06.531Z,219.38
2022-08-08T08:18:06.506Z,219.38
2022-08-08T08:19:07.508Z,219.38
2022-08-08T08:20:06.498Z,219.38
2022-08-08T08:21:13.362Z,219.38
2022-08-08T08:22:07.840Z,219.38
2022-08-08T08:23:06.438Z,219.38
2022-08-08T08:24:06.428Z,219.38
2022-08-08T08:25:07.415Z,219.38
2022-08-08T08:26:06.409Z,219.38
2022-08-08T08:27:09.421Z,219.38
2022-08-08T08:28:09.273Z,219.38
2022-08-08T08:29:06.361Z,219.38
2022-08-08T08:30:07.371Z,219.38
2022-08-08T08:31:06.331Z,219.38
2022-08-08T08:32:06.351Z,219.38
2022-08-08T08:33:06.329Z,219.38
2022-08-08T08:34:06.301Z,213.75
2022-08-08T08:35:06.507Z,213.75
2022-08-08T08:36:18.587Z,213.75
2022-08-08T08:37:07.839Z,213.75
2022-08-08T08:38:17.379Z,213.75
2022-08-08T08:39:07.515Z,213.75
2022-08-08T08:40:07.249Z,213.75
2022-08-08T08:41:16.853Z,225.00
2022-08-08T08:42:07.200Z,219.38
2022-08-08T08:43:11.580Z,219.38
2022-08-08T08:44:15.586Z,219.38
2022-08-08T08:45:21.078Z,219.38
2022-08-08T08:46:07.137Z,219.38
2022-08-08T08:47:06.593Z,219.38
2022-08-08T08:48:06.133Z,219.38
2022-08-08T08:49:06.097Z,219.38
2022-08-08T08:50:06.102Z,219.38
2022-08-08T08:51:07.069Z,219.38
2022-08-08T08:52:06.059Z,219.38
2022-08-08T08:53:27.251Z,225.00
2022-08-08T08:54:07.044Z,225.00
2022-08-08T08:55:06.012Z,225.00
2022-08-08T08:56:06.001Z,225.00
2022-08-08T08:57:15.368Z,225.00
2022-08-08T08:58:07.001Z,225.00
2022-08-08T08:59:05.966Z,225.00
2022-08-08T09:00:14.712Z,225.00
2022-08-08T09:01:09.634Z,225.00
2022-08-08T09:02:05.999Z,225.00
2022-08-08T09:03:05.905Z,225.00
2022-08-08T09:04:05.908Z,225.00
2022-08-08T09:05:05.889Z,225.00
2022-08-08T09:06:19.304Z,225.00
2022-08-08T09:07:12.913Z,225.00
2022-08-08T09:08:12.969Z,225.00
2022-08-08T09:09:07.442Z,225.00
2022-08-08T09:10:09.054Z,225.00
2022-08-08T09:11:06.811Z,225.00
2022-08-08T09:12:07.581Z,225.00
2022-08-08T09:13:05.768Z,225.00
2022-08-08T09:14:05.772Z,225.00
2022-08-08T09:15:06.139Z,225.00
2022-08-08T09:16:05.730Z,225.00
2022-08-08T09:17:12.786Z,225.00
2022-08-08T09:18:06.709Z,225.00
2022-08-08T09:19:05.697Z,225.00
2022-08-08T09:22:01.475Z,225.00
2022-08-08T09:22:02.442Z,225.00
2022-08-08T09:22:06.779Z,225.00
2022-08-08T09:23:05.632Z,225.00
2022-08-08T09:24:06.625Z,225.00
2022-08-08T09:25:05.738Z,230.62
2022-08-08T09:26:05.604Z,230.62
2022-08-08T09:27:05.588Z,230.62
2022-08-08T09:28:06.002Z,230.62
2022-08-08T09:29:08.417Z,236.25
2022-08-08T09:30:05.569Z,236.25
2022-08-08T09:31:12.579Z,236.25
2022-08-08T09:32:06.514Z,236.25
2022-08-08T09:33:20.784Z,236.25
2022-08-08T09:34:30.101Z,236.25
2022-08-08T09:35:08.398Z,236.25
2022-08-08T09:36:05.485Z,241.88
2022-08-08T09:37:57.164Z,241.88
2022-08-08T09:38:17.511Z,241.88
2022-08-08T09:39:15.420Z,241.88
2022-08-08T09:40:08.698Z,241.88
2022-08-08T09:41:06.578Z,241.88
2022-08-08T09:42:21.128Z,247.50
2022-08-08T09:43:16.397Z,247.50
2022-08-08T09:44:13.128Z,247.50
2022-08-08T09:45:08.087Z,241.88
2022-08-08T09:46:10.955Z,241.88
2022-08-08T09:48:02.355Z,247.50
2022-08-08T09:48:16.076Z,247.50
2022-08-08T09:49:41.406Z,247.50
2022-08-08T09:50:11.547Z,241.88
2022-08-08T09:51:06.255Z,247.50
2022-08-08T09:52:08.129Z,247.50
2022-08-08T09:53:13.953Z,247.50
2022-08-08T09:54:12.885Z,247.50
2022-08-08T09:55:06.230Z,247.50
2022-08-08T09:56:06.905Z,247.50
2022-08-08T09:57:05.187Z,247.50
2022-08-08T09:58:06.299Z,247.50
2022-08-08T09:59:31.963Z,247.50
2022-08-08T10:00:34.045Z,247.50
2022-08-08T10:01:14.503Z,247.50
2022-08-08T10:02:12.382Z,253.12
2022-08-08T10:03:06.121Z,253.12
2022-08-08T10:04:05.454Z,253.12
2022-08-08T10:05:14.276Z,253.12
2022-08-08T10:06:06.090Z,253.12
2022-08-08T10:07:07.463Z,253.12
2022-08-08T10:08:05.054Z,258.75
2022-08-08T10:09:08.319Z,264.38
2022-08-08T10:10:06.821Z,270.00
2022-08-08T10:12:22.503Z,270.00
2022-08-08T10:12:27.442Z,264.38
2022-08-08T10:13:14.765Z,258.75
2022-08-08T10:14:06.437Z,258.75
2022-08-08T10:15:17.428Z,264.38
2022-08-08T10:16:05.968Z,264.38
2022-08-08T10:17:30.269Z,264.38
2022-08-08T10:18:10.558Z,264.38
2022-08-08T10:19:05.900Z,270.00
2022-08-08T10:20:04.905Z,275.62
2022-08-08T10:21:22.655Z,286.88
2022-08-08T10:22:05.872Z,292.50
2022-08-08T10:23:04.838Z,230.62
2022-08-08T10:24:04.837Z,258.75
2022-08-08T10:25:05.885Z,270.00
2022-08-08T10:26:04.799Z,303.75
2022-08-08T10:27:05.806Z,298.12
2022-08-08T10:28:05.794Z,292.50
2022-08-08T10:29:04.761Z,286.88
2022-08-08T10:30:04.916Z,236.25
2022-08-08T10:31:04.731Z,281.25
2022-08-08T10:32:04.722Z,309.38
2022-08-08T10:33:04.728Z,309.38
2022-08-08T10:34:18.466Z,309.38
2022-08-08T10:35:11.587Z,236.25
2022-08-08T10:36:19.983Z,219.38
2022-08-08T10:37:05.662Z,219.38
2022-08-08T10:38:05.230Z,225.00
2022-08-08T10:39:07.161Z,230.62
2022-08-08T10:40:07.272Z,230.62
2022-08-08T10:41:04.619Z,236.25
2022-08-08T10:42:14.837Z,241.88
2022-08-08T10:43:05.591Z,241.88
2022-08-08T10:44:04.583Z,286.88
2022-08-08T10:45:08.876Z,298.12
2022-08-08T10:46:04.547Z,326.25
2022-08-08T10:47:05.542Z,326.25
2022-08-08T10:48:04.564Z,298.12
2022-08-08T10:49:04.501Z,326.25
2022-08-08T10:50:04.773Z,326.25
2022-08-08T10:51:04.471Z,331.88
2022-08-08T10:52:04.467Z,331.88
2022-08-08T10:53:04.751Z,331.88
2022-08-08T10:54:04.533Z,331.88
2022-08-08T10:55:05.072Z,337.50
2022-08-08T10:56:04.429Z,343.12
2022-08-08T10:57:04.442Z,354.38
2022-08-08T10:58:05.791Z,360.00
2022-08-08T10:59:04.378Z,365.62
2022-08-08T11:00:04.404Z,371.25
2022-08-08T11:01:09.996Z,376.88
2022-08-08T11:02:05.465Z,393.75
2022-08-08T11:03:04.318Z,405.00
2022-08-08T11:04:04.583Z,416.25
2022-08-08T11:05:05.263Z,421.88
2022-08-08T11:06:04.297Z,410.62
2022-08-08T11:07:04.352Z,410.62
2022-08-08T11:08:31.885Z,399.38
2022-08-08T11:09:15.191Z,410.62
2022-08-08T11:10:05.240Z,410.62
2022-08-08T11:11:08.075Z,410.62
2022-08-08T11:12:14.097Z,421.88
2022-08-08T11:13:29.003Z,421.88
2022-08-08T11:14:05.171Z,399.38
2022-08-08T11:15:04.165Z,343.12
2022-08-08T11:16:07.769Z,309.38
2022-08-08T11:17:05.162Z,309.38
2022-08-08T11:18:04.120Z,309.38
2022-08-08T11:19:04.115Z,309.38
2022-08-08T11:20:10.898Z,309.38
2022-08-08T11:21:09.913Z,315.00
2022-08-08T11:22:05.086Z,326.25
2022-08-08T11:23:05.610Z,331.88
2022-08-08T11:24:04.128Z,337.50
2022-08-08T11:25:14.361Z,343.12
2022-08-08T11:26:05.015Z,343.12
2022-08-08T11:27:19.809Z,354.38
2022-08-08T11:28:05.000Z,371.25
2022-08-08T11:29:04.470Z,371.25
2022-08-08T11:30:18.790Z,371.25
2022-08-08T11:31:04.938Z,365.62
2022-08-08T11:32:03.928Z,365.62
2022-08-08T11:33:05.198Z,360.00
2022-08-08T11:34:24.459Z,365.62
2022-08-08T11:35:23.474Z,365.62
2022-08-08T11:36:04.870Z,371.25
2022-08-08T11:37:14.796Z,393.75
2022-08-08T11:38:36.836Z,438.75
2022-08-08T11:39:04.888Z,540.00
2022-08-08T11:40:04.890Z,466.88
2022-08-08T11:41:03.803Z,455.62
2022-08-08T11:42:03.796Z,483.75
2022-08-08T11:43:04.801Z,489.38
2022-08-08T11:44:03.880Z,646.88
2022-08-08T11:45:03.767Z,697.50
2022-08-08T11:46:14.036Z,703.12
2022-08-08T11:47:12.993Z,736.88
2022-08-08T11:48:05.459Z,708.75
2022-08-08T11:49:05.145Z,765.00
2022-08-08T11:50:03.684Z,838.12
2022-08-08T11:51:37.326Z,843.75
2022-08-08T11:52:04.669Z,838.12
2022-08-08T11:53:06.103Z,855.00
2022-08-08T11:54:04.093Z,877.50
2022-08-08T11:55:03.619Z,866.25
2022-08-08T11:56:03.607Z,804.38
2022-08-08T11:57:03.614Z,793.12
2022-08-08T11:58:14.240Z,787.50
2022-08-08T11:59:04.623Z,708.75
2022-08-08T12:00:05.350Z,686.25
2022-08-08T12:01:03.543Z,568.12
2022-08-08T12:02:28.584Z,691.88
2022-08-08T12:03:04.564Z,703.12
2022-08-08T12:04:03.640Z,787.50
2022-08-08T12:05:03.507Z,894.38
2022-08-08T12:06:03.487Z,916.88
2022-08-08T12:07:03.875Z,928.12
2022-08-08T12:08:04.224Z,1006.88
2022-08-08T12:09:03.449Z,1192.50
2022-08-08T12:10:08.795Z,1158.75
2022-08-08T12:11:04.421Z,1113.75
2022-08-08T12:12:03.400Z,1141.88
2022-08-08T12:13:03.381Z,1102.50
2022-08-08T12:14:04.558Z,1102.50
2022-08-08T12:15:03.358Z,1125.00
2022-08-08T12:16:03.338Z,1175.62
2022-08-08T12:17:03.345Z,1282.50
2022-08-08T12:18:03.320Z,1316.25
2022-08-08T12:19:05.990Z,1423.12
2022-08-08T12:20:03.328Z,1485.00
2022-08-08T12:21:03.281Z,1501.88
2022-08-08T12:22:08.779Z,1586.25
2022-08-08T12:25:32.014Z,2941.88
2022-08-08T12:25:38.383Z,2925.00
2022-08-08T12:26:37.702Z,2632.50
2022-08-08T12:29:42.435Z,2098.12
2022-08-08T12:29:50.243Z,2086.88
2022-08-08T12:32:09.445Z,1636.88
2022-08-08T12:32:20.133Z,1614.38
2022-08-08T12:33:15.376Z,1777.50
2022-08-08T12:34:14.379Z,1929.38
2022-08-08T12:35:18.114Z,1923.75
2022-08-08T12:36:49.414Z,2143.12
2022-08-08T12:37:14.333Z,2148.75
2022-08-08T12:38:17.787Z,2176.88
2022-08-08T12:39:14.351Z,2086.88
2022-08-08T12:40:22.481Z,2115.00
2022-08-08T12:41:18.306Z,748.12
2022-08-08T12:42:21.440Z,1586.25
2022-08-08T12:43:15.263Z,1850.62
2022-08-08T12:44:32.186Z,1040.62
2022-08-08T12:45:58.658Z,826.88
2022-08-08T12:46:19.086Z,804.38
2022-08-08T12:47:14.193Z,945.00
2022-08-08T12:48:36.731Z,798.75
2022-08-08T12:51:02.619Z,1766.25
2022-08-08T12:51:10.818Z,1260.00